Hlavní strana
METAR-TAF:

METAR-TAF

Letiště :

Terst, Itálie

zeměpisná šířka: 45-39N, zeměpisná délka: 013-45E, výška: 8 m

Aktuální stav počasí

Zpráva byla vytvořena před 1 hodinou a 7 minutami, v 09:55 UTC
vítr z různých směrů 2 kt
Teplota 34°C
Vlhkost vzduchu 34%
Tlak 1015 hPa
Viditelnost 10 km a více
Žádná oblačnost pod 1500 m, nevyskytují se cumulonimby.

METAR: LIVT 200955Z VRB02KT CAVOK 34/16 Q1015 RMK FEW FEW200 QUK 2 QUL 0 VIS MAR 20 KM VIS MIN 9999

Čas: 13:02 (11:02 UTC)


TAF: chybějící

Stav a předpovědi počasí z více než 4 000 letišť (zprávy METAR a TAF).

Červené a žluté tečky na mapě představují dostupné meteorologické stanice.

Když kurzor umístíte na tečku, zobrazí se název stanice.

Pak kliknutím zobrazíte stav a předpověď počasí.

Chcete-li změnit mapu, kliknutím na zelené tlačítko se znaménkem +mapu přiblížíte, kliknutím na zelené tlačítko se znaménkem – mapu oddálíte a kliknutím na zelené šipky přejdete na sousední mapy.


METAR-TAF: